createdAt,value
2018-02-11T00:00:19.222Z,78.16
2018-02-11T00:01:19.170Z,78.35
2018-02-11T00:02:19.218Z,78.26
2018-02-11T00:03:19.066Z,78.16
2018-02-11T00:04:19.016Z,78.39
2018-02-11T00:05:18.962Z,78.49
2018-02-11T00:06:18.911Z,78.20
2018-02-11T00:07:18.859Z,78.11
2018-02-11T00:08:18.806Z,78.16
2018-02-11T00:09:18.754Z,78.26
2018-02-11T00:10:18.703Z,78.54
2018-02-11T00:11:18.657Z,78.54
2018-02-11T00:12:18.599Z,78.45
2018-02-11T00:13:18.547Z,78.26
2018-02-11T00:14:18.505Z,77.97
2018-02-11T00:15:18.445Z,78.26
2018-02-11T00:16:18.392Z,77.97
2018-02-11T00:17:18.340Z,77.97
2018-02-11T00:18:18.288Z,78.35
2018-02-11T00:19:18.235Z,78.73
2018-02-11T00:20:18.183Z,78.54
2018-02-11T00:21:18.132Z,78.54
2018-02-11T00:22:18.080Z,78.64
2018-02-11T00:23:18.027Z,78.73
2018-02-11T00:24:17.975Z,79.11
2018-02-11T00:25:17.923Z,79.02
2018-02-11T00:26:17.871Z,79.11
2018-02-11T00:27:17.822Z,79.49
2018-02-11T00:28:17.765Z,79.11
2018-02-11T00:29:17.714Z,79.39
2018-02-11T00:30:17.661Z,79.21
2018-02-11T00:31:17.608Z,79.11
2018-02-11T00:32:17.556Z,79.21
2018-02-11T00:33:17.503Z,79.30
2018-02-11T00:34:17.451Z,79.30
2018-02-11T00:35:17.398Z,79.21
2018-02-11T00:36:17.346Z,79.21
2018-02-11T00:37:17.294Z,79.49
2018-02-11T00:38:17.292Z,79.21
2018-02-11T00:39:17.188Z,79.49
2018-02-11T00:40:17.136Z,79.30
2018-02-11T00:41:17.083Z,79.49
2018-02-11T00:42:17.031Z,79.49
2018-02-11T00:43:16.978Z,79.11
2018-02-11T00:44:16.924Z,79.30
2018-02-11T00:45:16.873Z,79.02
2018-02-11T00:46:16.820Z,79.30
2018-02-11T00:47:16.768Z,79.30
2018-02-11T00:48:16.715Z,79.30
2018-02-11T00:49:16.663Z,79.11
2018-02-11T00:50:16.614Z,79.30
2018-02-11T00:51:16.557Z,79.11
2018-02-11T00:52:16.504Z,79.30
2018-02-11T00:53:16.453Z,79.30
2018-02-11T00:54:16.400Z,79.11
2018-02-11T00:55:16.347Z,78.92
2018-02-11T00:56:16.294Z,79.21
2018-02-11T00:57:16.243Z,79.39
2018-02-11T00:58:16.291Z,78.83
2018-02-11T00:59:16.137Z,78.83
2018-02-11T01:00:16.085Z,78.92
2018-02-11T01:01:16.032Z,79.11
2018-02-11T01:02:15.980Z,79.11
2018-02-11T01:03:15.927Z,79.02
2018-02-11T01:04:15.874Z,79.30
2018-02-11T01:05:15.822Z,79.02
2018-02-11T01:06:15.774Z,79.02
2018-02-11T01:07:15.716Z,79.02
2018-02-11T01:08:15.662Z,78.92
2018-02-11T01:09:15.611Z,79.30
2018-02-11T01:10:15.563Z,79.11
2018-02-11T01:11:15.506Z,79.21
2018-02-11T01:12:15.453Z,79.58
2018-02-11T01:13:15.400Z,79.39
2018-02-11T01:14:15.349Z,79.21
2018-02-11T01:15:15.295Z,79.21
2018-02-11T01:16:15.243Z,79.39
2018-02-11T01:17:15.190Z,79.39
2018-02-11T01:18:15.138Z,79.21
2018-02-11T01:19:15.084Z,79.39
2018-02-11T01:20:15.032Z,79.11
2018-02-11T01:21:14.979Z,79.30
2018-02-11T01:22:14.927Z,78.92
2018-02-11T01:23:14.873Z,79.30
2018-02-11T01:24:14.821Z,79.30
2018-02-11T01:25:14.769Z,79.02
2018-02-11T01:26:14.717Z,78.83
2018-02-11T01:27:14.664Z,78.83
2018-02-11T01:28:14.611Z,78.73
2018-02-11T01:29:14.559Z,78.73
2018-02-11T01:30:14.506Z,78.73
2018-02-11T01:31:14.453Z,78.45
2018-02-11T01:32:14.400Z,78.73
2018-02-11T01:33:14.350Z,78.83
2018-02-11T01:34:14.296Z,78.92
2018-02-11T01:35:14.245Z,78.92
2018-02-11T01:36:14.241Z,79.02
2018-02-11T01:37:14.139Z,78.07
2018-02-11T01:38:14.089Z,78.26
2018-02-11T01:39:14.034Z,78.16
2018-02-11T01:40:13.981Z,78.26
2018-02-11T01:41:13.934Z,78.35
2018-02-11T01:42:13.878Z,78.26
2018-02-11T01:43:13.825Z,78.35
2018-02-11T01:44:13.773Z,78.35
2018-02-11T01:45:13.720Z,78.35
2018-02-11T01:46:13.669Z,78.35
2018-02-11T01:47:13.616Z,78.16
2018-02-11T01:48:13.564Z,78.35
2018-02-11T01:49:13.512Z,78.26
2018-02-11T01:50:13.462Z,78.54
2018-02-11T01:51:13.407Z,78.07
2018-02-11T01:52:13.355Z,78.16
2018-02-11T01:53:13.303Z,78.35
2018-02-11T01:54:13.251Z,78.45
2018-02-11T01:55:13.198Z,78.45
2018-02-11T01:56:13.147Z,78.45
2018-02-11T01:57:13.095Z,78.16
2018-02-11T01:58:13.043Z,78.07
2018-02-11T01:59:12.990Z,77.97
2018-02-11T02:00:12.937Z,77.97
2018-02-11T02:01:12.889Z,77.88
2018-02-11T02:02:12.835Z,77.69
2018-02-11T02:03:12.782Z,78.26
2018-02-11T02:04:12.731Z,77.88
2018-02-11T02:05:12.678Z,78.07
2018-02-11T02:06:12.627Z,78.07
2018-02-11T02:07:12.574Z,78.26
2018-02-11T02:08:12.522Z,77.97
2018-02-11T02:09:12.471Z,78.07
2018-02-11T02:10:12.419Z,78.07
2018-02-11T02:11:12.367Z,78.16
2018-02-11T02:12:12.315Z,78.16
2018-02-11T02:13:12.263Z,77.50
2018-02-11T02:14:12.212Z,77.97
2018-02-11T02:15:12.159Z,78.07
2018-02-11T02:16:12.109Z,78.07
2018-02-11T02:17:12.055Z,77.88
2018-02-11T02:18:12.004Z,77.97
2018-02-11T02:19:11.951Z,77.88
2018-02-11T02:20:11.899Z,77.88
2018-02-11T02:21:11.848Z,77.59
2018-02-11T02:22:11.796Z,78.07
2018-02-11T02:23:11.742Z,77.88
2018-02-11T02:24:11.691Z,78.07
2018-02-11T02:25:11.639Z,77.78
2018-02-11T02:26:11.588Z,77.97
2018-02-11T02:27:11.534Z,77.97
2018-02-11T02:28:11.483Z,77.97
2018-02-11T02:29:11.431Z,78.35
2018-02-11T02:30:11.383Z,78.35
2018-02-11T02:31:11.328Z,78.45
2018-02-11T02:32:11.278Z,78.26
2018-02-11T02:33:11.223Z,78.07
2018-02-11T02:34:11.272Z,78.54
2018-02-11T02:35:11.118Z,78.26
2018-02-11T02:36:11.067Z,78.35
2018-02-11T02:37:11.049Z,78.26
2018-02-11T02:38:10.963Z,78.35
2018-02-11T02:39:10.915Z,78.26
2018-02-11T02:40:10.858Z,78.35
2018-02-11T02:41:10.810Z,78.16
2018-02-11T02:42:10.755Z,78.45
2018-02-11T02:43:10.702Z,78.64
2018-02-11T02:44:10.650Z,78.73
2018-02-11T02:45:10.603Z,78.73
2018-02-11T02:46:10.553Z,78.92
2018-02-11T02:47:10.493Z,79.36
2018-02-11T02:48:10.442Z,78.98
2018-02-11T02:49:10.390Z,80.21
2018-02-11T02:50:10.337Z,79.45
2018-02-11T02:51:10.285Z,79.74
2018-02-11T02:52:10.233Z,79.93
2018-02-11T02:53:10.181Z,79.93
2018-02-11T02:54:10.128Z,79.68
2018-02-11T02:55:10.075Z,79.55
2018-02-11T02:56:10.023Z,79.68
2018-02-11T02:57:09.971Z,79.74
2018-02-11T02:58:09.919Z,79.77
2018-02-11T02:59:09.866Z,79.96
2018-02-11T03:00:09.814Z,79.68
2018-02-11T03:01:09.761Z,79.77
2018-02-11T03:02:09.709Z,79.30
2018-02-11T03:03:09.656Z,79.58
2018-02-11T03:04:09.606Z,79.30
2018-02-11T03:05:09.555Z,79.39
2018-02-11T03:06:09.500Z,79.39
2018-02-11T03:07:09.447Z,79.49
2018-02-11T03:08:09.394Z,79.39
2018-02-11T03:09:09.342Z,79.39
2018-02-11T03:10:09.291Z,79.49
2018-02-11T03:11:09.237Z,79.30
2018-02-11T03:12:09.184Z,79.49
2018-02-11T03:13:09.132Z,79.30
2018-02-11T03:14:09.080Z,79.11
2018-02-11T03:15:09.027Z,79.39
2018-02-11T03:16:08.976Z,79.02
2018-02-11T03:17:08.922Z,79.30
2018-02-11T03:18:08.870Z,79.39
2018-02-11T03:19:08.819Z,79.11
2018-02-11T03:20:08.764Z,79.30
2018-02-11T03:21:08.712Z,79.11
2018-02-11T03:22:08.660Z,79.30
2018-02-11T03:23:08.606Z,79.58
2018-02-11T03:24:08.554Z,79.96
2018-02-11T03:25:08.502Z,79.45
2018-02-11T03:26:08.450Z,79.45
2018-02-11T03:27:08.397Z,79.55
2018-02-11T03:28:08.344Z,79.64
2018-02-11T03:29:08.292Z,79.96
2018-02-11T03:30:08.241Z,80.11
2018-02-11T03:31:08.187Z,80.44
2018-02-11T03:32:08.134Z,80.15
2018-02-11T03:33:08.082Z,80.15
2018-02-11T03:34:08.029Z,80.11
2018-02-11T03:35:07.976Z,80.11
2018-02-11T03:36:07.924Z,80.11
2018-02-11T03:37:07.872Z,80.11
2018-02-11T03:38:07.819Z,80.72
2018-02-11T03:39:07.765Z,80.30
2018-02-11T03:40:07.713Z,80.11
2018-02-11T03:41:07.668Z,80.49
2018-02-11T03:42:07.608Z,80.30
2018-02-11T03:43:07.555Z,80.40
2018-02-11T03:44:07.502Z,80.68
2018-02-11T03:45:07.450Z,80.77
2018-02-11T03:46:07.397Z,80.40
2018-02-11T03:47:07.351Z,80.49
2018-02-11T03:48:07.291Z,80.68
2018-02-11T03:49:07.239Z,80.87
2018-02-11T03:50:07.205Z,80.87
2018-02-11T03:51:07.133Z,80.96
2018-02-11T03:52:07.080Z,80.96
2018-02-11T03:53:07.027Z,80.96
2018-02-11T03:54:07.024Z,80.58
2018-02-11T03:55:06.921Z,80.87
2018-02-11T03:56:06.868Z,80.96
2018-02-11T03:57:06.816Z,80.68
2018-02-11T03:58:06.765Z,80.87
2018-02-11T03:59:06.710Z,81.44
2018-02-11T04:00:06.657Z,81.34
2018-02-11T04:01:06.605Z,81.53
2018-02-11T04:02:06.552Z,81.06
2018-02-11T04:03:06.498Z,81.25
2018-02-11T04:04:06.453Z,81.06
2018-02-11T04:05:06.393Z,81.53
2018-02-11T04:06:06.341Z,81.44
2018-02-11T04:07:06.287Z,81.44
2018-02-11T04:08:06.235Z,81.25
2018-02-11T04:09:06.182Z,81.63
2018-02-11T04:10:06.129Z,81.63
2018-02-11T04:11:06.075Z,82.01
2018-02-11T04:12:06.023Z,81.92
2018-02-11T04:13:05.970Z,81.92
2018-02-11T04:14:05.917Z,82.01
2018-02-11T04:15:05.864Z,82.10
2018-02-11T04:16:05.811Z,81.92
2018-02-11T04:17:05.759Z,82.10
2018-02-11T04:18:05.706Z,81.82
2018-02-11T04:19:05.652Z,82.01
2018-02-11T04:20:05.599Z,82.39
2018-02-11T04:21:05.547Z,82.20
2018-02-11T04:22:05.494Z,82.20
2018-02-11T04:23:05.440Z,82.29
2018-02-11T04:24:05.389Z,82.10
2018-02-11T04:25:05.334Z,82.01
2018-02-11T04:26:05.282Z,82.39
2018-02-11T04:27:05.229Z,82.20
2018-02-11T04:28:05.175Z,82.48
2018-02-11T04:29:05.123Z,82.48
2018-02-11T04:30:05.070Z,82.57
2018-02-11T04:31:05.016Z,81.92
2018-02-11T04:32:04.963Z,81.92
2018-02-11T04:33:04.911Z,82.01
2018-02-11T04:34:04.858Z,82.48
2018-02-11T04:35:04.804Z,82.48
2018-02-11T04:36:04.752Z,82.57
2018-02-11T04:37:04.698Z,82.76
2018-02-11T04:38:04.646Z,82.48
2018-02-11T04:39:04.592Z,82.48
2018-02-11T04:40:04.540Z,82.86
2018-02-11T04:41:04.486Z,82.76
2018-02-11T04:42:04.484Z,82.86
2018-02-11T04:43:04.380Z,82.67
2018-02-11T04:44:04.327Z,82.67
2018-02-11T04:45:04.274Z,82.67
2018-02-11T04:46:04.221Z,82.67
2018-02-11T04:47:04.167Z,82.76
2018-02-11T04:48:04.115Z,82.76
2018-02-11T04:49:04.062Z,82.76
2018-02-11T04:50:04.009Z,82.95
2018-02-11T04:51:03.955Z,82.67
2018-02-11T04:52:03.903Z,82.76
2018-02-11T04:53:03.850Z,82.57
2018-02-11T04:54:03.798Z,82.29
2018-02-11T04:55:03.744Z,82.29
2018-02-11T04:56:03.690Z,82.29
2018-02-11T04:57:03.638Z,82.20
2018-02-11T04:58:03.585Z,82.20
2018-02-11T04:59:03.535Z,82.14
2018-02-11T05:00:03.480Z,81.76
2018-02-11T05:01:03.427Z,81.86
2018-02-11T05:02:03.374Z,82.05
2018-02-11T05:03:03.320Z,81.76
2018-02-11T05:04:03.269Z,81.29
2018-02-11T05:05:03.216Z,81.38
2018-02-11T05:06:03.164Z,81.38
2018-02-11T05:07:03.111Z,81.53
2018-02-11T05:08:03.058Z,81.57
2018-02-11T05:09:03.005Z,81.76
2018-02-11T05:10:02.953Z,81.38
2018-02-11T05:11:02.900Z,81.38
2018-02-11T05:12:02.848Z,81.29
2018-02-11T05:13:02.795Z,81.48
2018-02-11T05:14:02.743Z,81.38
2018-02-11T05:15:02.690Z,81.29
2018-02-11T05:16:02.645Z,81.10
2018-02-11T05:17:02.585Z,80.82
2018-02-11T05:18:02.533Z,81.38
2018-02-11T05:19:02.480Z,81.38
2018-02-11T05:20:02.428Z,81.29
2018-02-11T05:21:02.375Z,81.29
2018-02-11T05:22:02.323Z,81.20
2018-02-11T05:23:02.270Z,81.20
2018-02-11T05:24:02.217Z,81.20
2018-02-11T05:25:02.165Z,80.91
2018-02-11T05:26:02.119Z,81.38
2018-02-11T05:27:02.060Z,81.48
2018-02-11T05:28:02.007Z,81.38
2018-02-11T05:29:01.955Z,81.01
2018-02-11T05:30:01.903Z,81.76
2018-02-11T05:31:01.850Z,81.38
2018-02-11T05:32:01.797Z,81.38
2018-02-11T05:33:01.744Z,81.29
2018-02-11T05:34:01.692Z,81.48
2018-02-11T05:35:01.638Z,81.57
2018-02-11T05:36:01.586Z,81.53
2018-02-11T05:37:01.533Z,81.57
2018-02-11T05:38:01.482Z,81.34
2018-02-11T05:39:01.428Z,81.82
2018-02-11T05:40:01.375Z,81.82
2018-02-11T05:41:01.324Z,81.82
2018-02-11T05:42:01.271Z,82.20
2018-02-11T05:43:01.217Z,82.20
2018-02-11T05:44:01.164Z,81.92
2018-02-11T05:45:01.162Z,82.20
2018-02-11T05:46:01.059Z,82.39
2018-02-11T05:47:01.005Z,82.48
2018-02-11T05:48:00.953Z,82.48
2018-02-11T05:49:00.900Z,82.86
2018-02-11T05:50:00.848Z,82.86
2018-02-11T05:51:00.794Z,82.86
2018-02-11T05:52:00.741Z,82.76
2018-02-11T05:53:00.688Z,82.95
2018-02-11T05:54:00.636Z,82.76
2018-02-11T05:55:00.582Z,82.86
2018-02-11T05:56:00.529Z,82.76
2018-02-11T05:57:00.477Z,82.76
2018-02-11T05:58:00.424Z,82.76
2018-02-11T05:59:00.370Z,83.05
2018-02-11T06:00:00.317Z,82.95
2018-02-11T06:01:00.264Z,82.76
2018-02-11T06:02:00.211Z,82.76
2018-02-11T06:03:00.158Z,82.95
2018-02-11T06:04:00.105Z,83.05
2018-02-11T06:05:00.057Z,82.76
2018-02-11T06:05:59.999Z,82.76
2018-02-11T06:06:59.946Z,83.05
2018-02-11T06:07:59.893Z,82.76
2018-02-11T06:08:59.841Z,82.76
2018-02-11T06:09:59.791Z,82.67
2018-02-11T06:10:59.734Z,82.76
2018-02-11T06:11:59.681Z,82.57
2018-02-11T06:12:59.628Z,82.57
2018-02-11T06:13:59.575Z,82.67
2018-02-11T06:14:59.522Z,82.67
2018-02-11T06:15:59.468Z,82.95
2018-02-11T06:16:59.416Z,83.14
2018-02-11T06:17:59.364Z,83.33
2018-02-11T06:18:59.309Z,83.24
2018-02-11T06:19:59.256Z,83.43
2018-02-11T06:20:59.203Z,83.52
2018-02-11T06:21:59.150Z,83.43
2018-02-11T06:22:59.097Z,83.62
2018-02-11T06:23:59.043Z,83.33
2018-02-11T06:24:58.990Z,83.71
2018-02-11T06:25:58.938Z,83.14
2018-02-11T06:26:58.884Z,84.00
2018-02-11T06:27:58.831Z,83.43
2018-02-11T06:28:58.778Z,83.81
2018-02-11T06:29:58.725Z,83.62
2018-02-11T06:30:58.671Z,83.81
2018-02-11T06:31:58.618Z,83.81
2018-02-11T06:32:58.565Z,83.33
2018-02-11T06:33:58.512Z,83.52
2018-02-11T06:34:58.459Z,83.33
2018-02-11T06:35:58.405Z,83.52
2018-02-11T06:36:58.352Z,83.52
2018-02-11T06:37:58.300Z,83.52
2018-02-11T06:38:58.246Z,83.52
2018-02-11T06:39:58.195Z,83.43
2018-02-11T06:40:58.140Z,83.24
2018-02-11T06:41:58.087Z,83.43
2018-02-11T06:42:58.033Z,83.33
2018-02-11T06:43:57.980Z,83.14
2018-02-11T06:44:57.928Z,83.14
2018-02-11T06:45:57.877Z,83.24
2018-02-11T06:46:57.821Z,83.43
2018-02-11T06:47:57.768Z,83.24
2018-02-11T06:48:57.715Z,83.24
2018-02-11T06:49:57.662Z,83.05
2018-02-11T06:50:57.608Z,83.33
2018-02-11T06:51:57.557Z,83.14
2018-02-11T06:52:57.502Z,83.33
2018-02-11T06:53:57.450Z,83.14
2018-02-11T06:54:57.396Z,83.14
2018-02-11T06:55:57.343Z,83.14
2018-02-11T06:56:57.290Z,83.14
2018-02-11T06:57:57.237Z,82.76
2018-02-11T06:58:57.183Z,82.48
2018-02-11T06:59:57.130Z,82.48
2018-02-11T07:00:57.078Z,82.76
2018-02-11T07:01:57.028Z,82.81
2018-02-11T07:02:56.970Z,82.90
2018-02-11T07:03:56.919Z,82.62
2018-02-11T07:04:56.866Z,82.43
2018-02-11T07:05:56.813Z,82.52
2018-02-11T07:06:56.759Z,81.95
2018-02-11T07:07:56.706Z,82.05
2018-02-11T07:08:56.654Z,82.24
2018-02-11T07:09:56.651Z,81.95
2018-02-11T07:10:56.548Z,81.95
2018-02-11T07:11:56.495Z,81.67
2018-02-11T07:12:56.444Z,81.38
2018-02-11T07:13:56.390Z,81.76
2018-02-11T07:14:56.337Z,81.38
2018-02-11T07:15:56.283Z,81.76
2018-02-11T07:16:56.231Z,81.29
2018-02-11T07:17:56.179Z,81.20
2018-02-11T07:18:56.128Z,81.01
2018-02-11T07:19:56.073Z,80.63
2018-02-11T07:20:56.025Z,80.82
2018-02-11T07:21:55.968Z,80.53
2018-02-11T07:22:55.915Z,80.63
2018-02-11T07:23:55.863Z,80.44
2018-02-11T07:24:55.810Z,80.34
2018-02-11T07:25:55.758Z,80.53
2018-02-11T07:26:55.704Z,80.63
2018-02-11T07:27:55.653Z,80.15
2018-02-11T07:28:55.601Z,79.91
2018-02-11T07:29:55.548Z,79.91
2018-02-11T07:30:55.495Z,79.34
2018-02-11T07:31:55.443Z,79.25
2018-02-11T07:32:55.391Z,78.67
2018-02-11T07:33:55.339Z,78.67
2018-02-11T07:34:55.287Z,78.39
2018-02-11T07:35:55.236Z,78.05
2018-02-11T07:36:55.183Z,77.67
2018-02-11T07:37:55.131Z,76.76
2018-02-11T07:38:55.079Z,75.09
2018-02-11T07:39:55.028Z,73.71
2018-02-11T07:40:54.977Z,72.13
2018-02-11T07:41:54.926Z,71.37
2018-02-11T07:42:54.875Z,70.89
2018-02-11T07:43:54.833Z,69.60
2018-02-11T07:44:54.781Z,69.21
2018-02-11T07:45:54.726Z,67.54
2018-02-11T07:46:54.676Z,66.02
2018-02-11T07:47:54.628Z,65.35
2018-02-11T07:48:54.579Z,65.25
2018-02-11T07:49:54.537Z,64.08
2018-02-11T07:50:54.481Z,64.37
2018-02-11T07:51:54.433Z,64.84
2018-02-11T07:52:54.385Z,64.27
2018-02-11T07:53:54.337Z,63.70
2018-02-11T07:54:54.288Z,64.18
2018-02-11T07:55:54.240Z,64.27
2018-02-11T07:56:54.191Z,64.34
2018-02-11T07:57:54.143Z,65.76
2018-02-11T07:58:54.095Z,64.87
2018-02-11T07:59:54.047Z,65.73
2018-02-11T08:00:54.001Z,66.11
2018-02-11T08:01:53.955Z,66.87
2018-02-11T08:02:53.904Z,66.64
2018-02-11T08:03:53.852Z,66.93
2018-02-11T08:04:53.854Z,67.79
2018-02-11T08:05:53.755Z,67.46
2018-02-11T08:06:53.705Z,68.23
2018-02-11T08:07:53.657Z,68.79
2018-02-11T08:08:53.609Z,69.36
2018-02-11T08:09:53.558Z,69.36
2018-02-11T08:10:53.508Z,69.80
2018-02-11T08:11:53.458Z,70.56
2018-02-11T08:12:53.409Z,70.75
2018-02-11T08:13:53.358Z,71.32
2018-02-11T08:14:53.308Z,71.41
2018-02-11T08:15:53.258Z,71.13
2018-02-11T08:16:53.215Z,71.03
2018-02-11T08:17:53.158Z,71.41
2018-02-11T08:18:53.107Z,71.41
2018-02-11T08:19:53.057Z,71.51
2018-02-11T08:20:53.007Z,71.51
2018-02-11T08:21:52.957Z,71.22
2018-02-11T08:22:52.905Z,71.32
2018-02-11T08:23:52.855Z,70.94
2018-02-11T08:24:52.805Z,71.32
2018-02-11T08:25:52.754Z,71.17
2018-02-11T08:26:52.703Z,70.88
2018-02-11T08:27:52.654Z,69.93
2018-02-11T08:28:52.603Z,69.30
2018-02-11T08:29:52.552Z,68.35
2018-02-11T08:30:52.502Z,68.29
2018-02-11T08:31:52.452Z,67.25
2018-02-11T08:32:52.408Z,66.87
2018-02-11T08:33:52.353Z,66.30
2018-02-11T08:34:52.303Z,65.54
2018-02-11T08:35:52.254Z,65.95
2018-02-11T08:36:52.205Z,65.35
2018-02-11T08:37:52.158Z,65.25
2018-02-11T08:38:52.106Z,65.92
2018-02-11T08:39:52.057Z,65.73
2018-02-11T08:40:52.008Z,65.73
2018-02-11T08:41:51.960Z,65.38
2018-02-11T08:42:51.910Z,64.18
2018-02-11T08:43:51.861Z,62.30
2018-02-11T08:44:51.814Z,60.88
2018-02-11T08:45:51.767Z,59.67
2018-02-11T08:46:51.717Z,58.87
2018-02-11T08:47:51.670Z,57.09
2018-02-11T08:48:51.624Z,55.00
2018-02-11T08:49:51.585Z,53.88
2018-02-11T08:50:51.534Z,52.73
2018-02-11T08:51:51.486Z,52.28
2018-02-11T08:52:51.441Z,51.71
2018-02-11T08:53:51.396Z,50.92
2018-02-11T08:54:51.355Z,51.40
2018-02-11T08:55:51.305Z,52.23
2018-02-11T08:56:51.261Z,52.78
2018-02-11T08:57:51.216Z,53.54
2018-02-11T08:58:51.171Z,54.47
2018-02-11T08:59:51.125Z,55.20
2018-02-11T09:00:51.082Z,56.12
2018-02-11T09:01:51.035Z,57.14
2018-02-11T09:02:50.988Z,57.90
2018-02-11T09:03:50.942Z,58.92
2018-02-11T09:04:50.896Z,59.87
2018-02-11T09:05:50.850Z,60.44
2018-02-11T09:06:50.801Z,60.69
2018-02-11T09:07:50.755Z,61.36
2018-02-11T09:08:50.709Z,61.42
2018-02-11T09:09:50.660Z,62.18
2018-02-11T09:10:50.612Z,62.66
2018-02-11T09:11:50.565Z,63.13
2018-02-11T09:12:50.564Z,62.94
2018-02-11T09:13:50.468Z,63.04
2018-02-11T09:14:50.419Z,63.70
2018-02-11T09:15:50.384Z,63.60
2018-02-11T09:16:50.323Z,63.70
2018-02-11T09:17:50.275Z,63.70
2018-02-11T09:18:50.228Z,63.89
2018-02-11T09:19:50.176Z,63.70
2018-02-11T09:20:50.127Z,63.98
2018-02-11T09:21:50.078Z,63.79
2018-02-11T09:22:50.029Z,63.70
2018-02-11T09:23:49.980Z,63.51
2018-02-11T09:24:49.931Z,63.70
2018-02-11T09:25:49.882Z,63.23
2018-02-11T09:26:49.832Z,63.13
2018-02-11T09:27:49.782Z,63.17
2018-02-11T09:28:49.734Z,62.78
2018-02-11T09:29:49.684Z,62.69
2018-02-11T09:30:49.636Z,62.02
2018-02-11T09:31:49.589Z,61.45
2018-02-11T09:32:49.537Z,61.58
2018-02-11T09:33:49.489Z,61.10
2018-02-11T09:34:49.439Z,60.82
2018-02-11T09:35:49.390Z,59.77
2018-02-11T09:36:49.342Z,59.68
2018-02-11T09:37:49.293Z,59.87
2018-02-11T09:38:49.244Z,59.96
2018-02-11T09:39:49.195Z,60.03
2018-02-11T09:40:49.149Z,60.69
2018-02-11T09:41:49.102Z,60.98
2018-02-11T09:42:49.050Z,60.98
2018-02-11T09:43:49.002Z,60.98
2018-02-11T09:44:48.953Z,60.98
2018-02-11T09:45:48.905Z,60.98
2018-02-11T09:46:48.856Z,60.79
2018-02-11T09:47:48.807Z,61.17
2018-02-11T09:48:48.758Z,60.98
2018-02-11T09:49:48.712Z,60.63
2018-02-11T09:50:48.661Z,60.60
2018-02-11T09:51:48.613Z,60.60
2018-02-11T09:52:48.564Z,60.60
2018-02-11T09:53:48.516Z,60.60
2018-02-11T09:54:48.466Z,60.60
2018-02-11T09:55:48.420Z,61.07
2018-02-11T09:56:48.370Z,60.88
2018-02-11T09:57:48.322Z,60.79
2018-02-11T09:58:48.272Z,61.36
2018-02-11T09:59:48.223Z,60.79
2018-02-11T10:00:48.177Z,61.04
2018-02-11T10:01:48.125Z,61.80
2018-02-11T10:02:48.075Z,61.42
2018-02-11T10:03:48.026Z,62.08
2018-02-11T10:04:47.981Z,62.37
2018-02-11T10:05:47.932Z,62.27
2018-02-11T10:06:47.879Z,62.85
2018-02-11T10:07:47.830Z,62.46
2018-02-11T10:08:47.781Z,62.27
2018-02-11T10:09:47.730Z,62.66
2018-02-11T10:10:47.679Z,62.46
2018-02-11T10:11:47.634Z,63.13
2018-02-11T10:12:47.581Z,63.32
2018-02-11T10:13:47.531Z,63.23
2018-02-11T10:14:47.481Z,63.23
2018-02-11T10:15:47.431Z,63.04
2018-02-11T10:16:47.381Z,63.23
2018-02-11T10:17:47.334Z,63.32
2018-02-11T10:18:47.284Z,62.97
2018-02-11T10:19:47.231Z,62.59
2018-02-11T10:20:47.182Z,62.12
2018-02-11T10:21:47.132Z,62.21
2018-02-11T10:22:47.083Z,61.83
2018-02-11T10:23:47.082Z,62.21
2018-02-11T10:24:46.983Z,62.02
2018-02-11T10:25:46.941Z,61.55
2018-02-11T10:26:46.884Z,60.88
2018-02-11T10:27:46.834Z,60.79
2018-02-11T10:28:46.785Z,60.88
2018-02-11T10:29:46.736Z,61.10
2018-02-11T10:30:46.686Z,60.44
2018-02-11T10:31:46.636Z,60.72
2018-02-11T10:32:46.588Z,60.53
2018-02-11T10:33:46.539Z,60.53
2018-02-11T10:34:46.489Z,60.06
2018-02-11T10:35:46.442Z,60.16
2018-02-11T10:36:46.391Z,60.25
2018-02-11T10:37:46.352Z,59.87
2018-02-11T10:38:46.292Z,59.87
2018-02-11T10:39:46.244Z,59.96
2018-02-11T10:40:46.205Z,59.49
2018-02-11T10:41:46.149Z,60.06
2018-02-11T10:42:46.097Z,59.87
2018-02-11T10:43:46.053Z,59.96
2018-02-11T10:44:45.999Z,59.96
2018-02-11T10:45:45.950Z,59.96
2018-02-11T10:46:45.901Z,59.68
2018-02-11T10:47:45.853Z,59.68
2018-02-11T10:48:45.804Z,59.30
2018-02-11T10:49:45.755Z,59.01
2018-02-11T10:50:45.705Z,58.73
2018-02-11T10:51:45.657Z,58.63
2018-02-11T10:52:45.608Z,58.83
2018-02-11T10:53:45.559Z,59.01
2018-02-11T10:54:45.510Z,59.30
2018-02-11T10:55:45.460Z,59.96
2018-02-11T10:56:45.413Z,59.49
2018-02-11T10:57:45.364Z,59.39
2018-02-11T10:58:45.315Z,59.49
2018-02-11T10:59:45.266Z,59.39
2018-02-11T11:00:45.217Z,59.68
2018-02-11T11:01:45.170Z,59.96
2018-02-11T11:02:45.119Z,60.16
2018-02-11T11:03:45.071Z,60.06
2018-02-11T11:04:45.023Z,59.87
2018-02-11T11:05:44.974Z,59.68
2018-02-11T11:06:44.927Z,60.25
2018-02-11T11:07:44.876Z,59.96
2018-02-11T11:08:44.827Z,59.87
2018-02-11T11:09:44.779Z,60.06
2018-02-11T11:10:44.730Z,60.16
2018-02-11T11:11:44.681Z,60.72
2018-02-11T11:12:44.633Z,60.79
2018-02-11T11:13:44.584Z,60.79
2018-02-11T11:14:44.534Z,61.07
2018-02-11T11:15:44.485Z,61.45
2018-02-11T11:16:44.437Z,61.17
2018-02-11T11:17:44.388Z,61.74
2018-02-11T11:18:44.339Z,61.45
2018-02-11T11:19:44.290Z,61.93
2018-02-11T11:20:44.241Z,63.17
2018-02-11T11:21:44.193Z,64.21
2018-02-11T11:22:44.144Z,65.25
2018-02-11T11:23:44.101Z,66.11
2018-02-11T11:24:44.045Z,66.67
2018-02-11T11:25:43.996Z,67.06
2018-02-11T11:26:43.946Z,67.34
2018-02-11T11:27:43.897Z,66.77
2018-02-11T11:28:43.848Z,66.87
2018-02-11T11:29:43.799Z,66.67
2018-02-11T11:30:43.748Z,67.53
2018-02-11T11:31:43.699Z,67.63
2018-02-11T11:32:43.649Z,67.44
2018-02-11T11:33:43.602Z,67.06
2018-02-11T11:34:43.552Z,66.96
2018-02-11T11:35:43.503Z,67.53
2018-02-11T11:36:43.454Z,67.34
2018-02-11T11:37:43.455Z,66.96
2018-02-11T11:38:43.381Z,67.15
2018-02-11T11:39:43.307Z,67.34
2018-02-11T11:40:43.257Z,66.58
2018-02-11T11:41:43.212Z,66.67
2018-02-11T11:42:43.258Z,66.96
2018-02-11T11:43:43.112Z,67.44
2018-02-11T11:44:43.060Z,66.87
2018-02-11T11:45:43.011Z,67.15
2018-02-11T11:46:42.961Z,67.44
2018-02-11T11:47:42.911Z,67.44
2018-02-11T11:48:42.863Z,67.44
2018-02-11T11:49:42.814Z,67.25
2018-02-11T11:50:42.764Z,67.63
2018-02-11T11:51:42.715Z,67.44
2018-02-11T11:52:42.666Z,67.53
2018-02-11T11:53:42.617Z,67.91
2018-02-11T11:54:42.568Z,67.63
2018-02-11T11:55:42.518Z,66.87
2018-02-11T11:56:42.470Z,67.44
2018-02-11T11:57:42.421Z,67.44
2018-02-11T11:58:42.371Z,67.91
2018-02-11T11:59:42.322Z,67.53
2018-02-11T12:00:42.272Z,66.77
2018-02-11T12:01:42.224Z,67.53
2018-02-11T12:02:42.174Z,67.06
2018-02-11T12:03:42.126Z,67.53
2018-02-11T12:04:42.076Z,67.44
2018-02-11T12:05:42.027Z,67.91
2018-02-11T12:06:41.977Z,67.63
2018-02-11T12:07:41.928Z,67.25
2018-02-11T12:08:41.879Z,67.72
2018-02-11T12:09:41.830Z,67.44
2018-02-11T12:10:41.784Z,67.63
2018-02-11T12:11:41.735Z,67.34
2018-02-11T12:12:41.682Z,67.44
2018-02-11T12:13:41.633Z,68.01
2018-02-11T12:14:41.584Z,67.82
2018-02-11T12:15:41.535Z,67.63
2018-02-11T12:16:41.486Z,67.53
2018-02-11T12:17:41.436Z,67.63
2018-02-11T12:18:41.436Z,67.53
2018-02-11T12:19:41.337Z,68.48
2018-02-11T12:20:41.288Z,68.10
2018-02-11T12:21:41.239Z,67.91
2018-02-11T12:22:41.189Z,68.39
2018-02-11T12:23:41.147Z,68.01
2018-02-11T12:24:41.091Z,68.16
2018-02-11T12:25:41.041Z,68.58
2018-02-11T12:26:40.991Z,69.15
2018-02-11T12:27:40.942Z,69.02
2018-02-11T12:28:40.893Z,69.78
2018-02-11T12:29:40.844Z,70.06
2018-02-11T12:30:40.794Z,70.63
2018-02-11T12:31:40.743Z,71.20
2018-02-11T12:32:40.695Z,71.58
2018-02-11T12:33:40.645Z,72.06
2018-02-11T12:34:40.599Z,72.44
2018-02-11T12:35:40.545Z,73.00
2018-02-11T12:36:40.496Z,73.48
2018-02-11T12:37:40.446Z,73.76
2018-02-11T12:38:40.396Z,74.81
2018-02-11T12:39:40.346Z,75.62
2018-02-11T12:40:40.296Z,75.91
2018-02-11T12:41:40.247Z,76.57
2018-02-11T12:42:40.196Z,77.24
2018-02-11T12:43:40.147Z,78.09
2018-02-11T12:44:40.097Z,78.47
2018-02-11T12:45:40.048Z,78.85
2018-02-11T12:46:39.997Z,79.42
2018-02-11T12:47:39.948Z,80.18
2018-02-11T12:48:39.899Z,79.90
2018-02-11T12:49:39.848Z,79.52
2018-02-11T12:50:39.798Z,79.33
2018-02-11T12:51:39.747Z,79.33